createdAt,value
2022-08-05T00:00:17.299Z,26.30
2022-08-05T00:02:51.610Z,26.22
2022-08-05T00:06:03.153Z,26.11
2022-08-05T00:08:34.236Z,26.13
2022-08-05T00:11:01.630Z,26.26
2022-08-05T00:13:38.970Z,26.21
2022-08-05T00:16:14.737Z,26.23
2022-08-05T00:18:45.955Z,26.17
2022-08-05T00:21:17.815Z,26.08
2022-08-05T00:24:05.200Z,25.98
2022-08-05T00:26:36.598Z,25.91
2022-08-05T00:29:03.998Z,25.91
2022-08-05T00:31:54.309Z,26.03
2022-08-05T00:34:55.331Z,25.93
2022-08-05T00:37:11.599Z,25.90
2022-08-05T00:39:57.994Z,25.89
2022-08-05T00:42:35.014Z,25.78
2022-08-05T00:45:04.468Z,25.77
2022-08-05T00:47:56.926Z,25.78
2022-08-05T00:50:21.110Z,25.64
2022-08-05T00:52:55.501Z,25.42
2022-08-05T00:55:42.476Z,25.05
2022-08-05T00:58:19.569Z,24.89
2022-08-05T01:00:47.838Z,24.78
2022-08-05T01:03:22.517Z,24.60
2022-08-05T01:05:54.665Z,24.57
2022-08-05T01:08:40.188Z,24.54
2022-08-05T01:11:33.288Z,24.42
2022-08-05T01:14:27.996Z,24.52
2022-08-05T01:17:09.827Z,24.47
2022-08-05T01:20:01.638Z,24.55
2022-08-05T01:23:14.917Z,24.56
2022-08-05T01:26:14.257Z,24.60
2022-08-05T01:28:57.593Z,24.64
2022-08-05T01:31:44.868Z,24.68
2022-08-05T01:34:26.796Z,24.81
2022-08-05T01:37:34.350Z,24.84
2022-08-05T01:40:07.912Z,24.70
2022-08-05T01:42:38.143Z,24.71
2022-08-05T01:45:08.822Z,24.56
2022-08-05T01:47:38.796Z,24.48
2022-08-05T01:50:14.983Z,24.39
2022-08-05T01:52:49.664Z,24.34
2022-08-05T01:55:20.194Z,24.39
2022-08-05T01:58:10.721Z,24.39
2022-08-05T02:00:44.568Z,24.47
2022-08-05T02:03:31.448Z,24.44
2022-08-05T02:06:37.777Z,24.50
2022-08-05T02:08:58.883Z,24.46
2022-08-05T02:11:47.758Z,24.35
2022-08-05T02:14:39.952Z,24.34
2022-08-05T02:18:14.537Z,24.34
2022-08-05T02:20:20.526Z,24.27
2022-08-05T02:22:58.506Z,24.20
2022-08-05T02:25:49.506Z,24.01
2022-08-05T02:28:28.352Z,23.86
2022-08-05T02:31:01.964Z,23.78
2022-08-05T02:33:38.304Z,23.86
2022-08-05T02:36:13.751Z,23.80
2022-08-05T02:38:53.140Z,23.73
2022-08-05T02:41:23.889Z,23.74
2022-08-05T02:44:06.054Z,23.74
2022-08-05T02:46:44.180Z,23.67
2022-08-05T02:49:37.108Z,23.52
2022-08-05T02:52:29.741Z,23.58
2022-08-05T02:55:05.669Z,23.53
2022-08-05T02:58:09.316Z,23.41
2022-08-05T03:00:30.662Z,23.26
2022-08-05T03:03:03.566Z,23.28
2022-08-05T03:06:55.155Z,23.19
2022-08-05T03:08:30.004Z,23.22
2022-08-05T03:11:53.780Z,23.30
2022-08-05T03:13:51.581Z,23.21
2022-08-05T03:16:30.571Z,23.11
2022-08-05T03:19:04.285Z,23.05
2022-08-05T03:21:49.483Z,23.13
2022-08-05T03:24:29.488Z,23.02
2022-08-05T03:27:01.120Z,23.06
2022-08-05T03:29:45.378Z,23.00
2022-08-05T03:32:17.286Z,22.88
2022-08-05T03:34:50.537Z,22.87
2022-08-05T03:37:21.039Z,22.84
2022-08-05T03:39:59.253Z,22.81
2022-08-05T03:42:32.147Z,22.93
2022-08-05T03:45:21.901Z,23.02
2022-08-05T03:47:52.000Z,22.97
2022-08-05T03:50:44.047Z,22.86
2022-08-05T03:55:51.763Z,22.90
2022-08-05T03:56:18.111Z,22.80
2022-08-05T03:59:01.154Z,22.84
2022-08-05T04:01:32.302Z,22.81
2022-08-05T04:04:08.867Z,22.87
2022-08-05T04:06:47.723Z,22.88
2022-08-05T04:09:25.962Z,22.83
2022-08-05T04:11:57.057Z,22.86
2022-08-05T04:14:30.462Z,22.84
2022-08-05T04:17:00.137Z,22.92
2022-08-05T04:19:28.764Z,22.93
2022-08-05T04:22:10.118Z,22.91
2022-08-05T04:24:52.573Z,23.02
2022-08-05T04:27:32.984Z,23.13
2022-08-05T04:30:10.879Z,23.20
2022-08-05T04:32:39.067Z,23.20
2022-08-05T04:35:07.327Z,23.14
2022-08-05T04:38:01.696Z,23.13
2022-08-05T04:40:37.266Z,23.19
2022-08-05T04:43:11.034Z,23.26
2022-08-05T04:45:48.171Z,23.21
2022-08-05T04:48:27.047Z,23.32
2022-08-05T04:51:02.811Z,23.43
2022-08-05T04:53:38.562Z,23.40
2022-08-05T04:56:33.807Z,23.47
2022-08-05T04:58:55.583Z,23.56
2022-08-05T05:02:06.350Z,23.52
2022-08-05T05:04:11.251Z,23.61
2022-08-05T05:06:49.222Z,23.59
2022-08-05T05:09:19.469Z,23.63
2022-08-05T05:11:55.541Z,23.72
2022-08-05T05:14:27.855Z,23.71
2022-08-05T05:17:01.209Z,23.71
2022-08-05T05:19:37.257Z,23.90
2022-08-05T05:22:23.526Z,23.89
2022-08-05T05:24:58.147Z,24.08
2022-08-05T05:27:44.994Z,24.12
2022-08-05T05:30:30.854Z,24.26
2022-08-05T05:33:16.602Z,24.62
2022-08-05T05:35:47.387Z,24.74
2022-08-05T05:38:22.367Z,24.66
2022-08-05T05:40:56.439Z,24.68
2022-08-05T05:43:54.109Z,24.64
2022-08-05T05:46:16.077Z,24.66
2022-08-05T05:48:48.014Z,24.63
2022-08-05T05:51:23.895Z,24.63
2022-08-05T05:53:57.522Z,24.69
2022-08-05T05:56:32.984Z,24.75
2022-08-05T05:59:05.073Z,24.80
2022-08-05T06:01:39.416Z,24.86
2022-08-05T06:04:14.739Z,24.93
2022-08-05T06:06:47.377Z,24.92
2022-08-05T06:09:25.765Z,25.00
2022-08-05T06:12:04.752Z,25.16
2022-08-05T06:14:33.272Z,25.13
2022-08-05T06:17:22.334Z,25.18
2022-08-05T06:19:56.555Z,25.23
2022-08-05T06:22:33.535Z,25.30
2022-08-05T06:25:25.118Z,25.34
2022-08-05T06:28:10.840Z,25.46
2022-08-05T06:30:39.054Z,25.68
2022-08-05T06:33:09.881Z,25.70
2022-08-05T06:36:07.012Z,25.91
2022-08-05T06:38:36.785Z,26.10
2022-08-05T06:41:05.411Z,26.17
2022-08-05T06:43:57.506Z,26.22
2022-08-05T06:46:30.371Z,26.29
2022-08-05T06:49:01.312Z,26.31
2022-08-05T06:51:31.226Z,26.49
2022-08-05T06:54:03.728Z,26.58
2022-08-05T06:56:34.437Z,26.67
2022-08-05T06:59:08.633Z,26.79
2022-08-05T07:01:40.780Z,26.85
2022-08-05T07:04:10.152Z,27.01
2022-08-05T07:06:38.131Z,27.22
2022-08-05T07:09:07.053Z,27.39
2022-08-05T07:11:37.317Z,27.58
2022-08-05T07:14:29.607Z,27.98
2022-08-05T07:17:59.333Z,28.42
2022-08-05T07:20:31.396Z,28.54
2022-08-05T07:22:42.032Z,28.84
2022-08-05T07:25:54.728Z,28.95
2022-08-05T07:28:03.838Z,28.69
2022-08-05T07:30:38.492Z,28.66
2022-08-05T07:33:16.036Z,28.85
2022-08-05T07:36:03.870Z,29.04
2022-08-05T07:38:43.075Z,29.36
2022-08-05T07:42:13.532Z,29.88
2022-08-05T07:44:14.297Z,30.06
2022-08-05T07:46:48.569Z,30.49
2022-08-05T07:49:18.570Z,30.49
2022-08-05T07:51:53.937Z,30.66
2022-08-05T07:54:31.744Z,30.81
2022-08-05T07:57:18.051Z,30.90
2022-08-05T07:59:53.479Z,30.89
2022-08-05T08:02:31.226Z,30.95
2022-08-05T08:05:16.886Z,31.27
2022-08-05T08:07:59.283Z,31.39
2022-08-05T08:10:30.694Z,31.59
2022-08-05T08:12:59.221Z,31.76
2022-08-05T08:16:33.681Z,31.95
2022-08-05T08:18:20.974Z,31.92
2022-08-05T08:21:01.979Z,31.90
2022-08-05T08:24:01.606Z,31.71
2022-08-05T08:26:26.723Z,31.72
2022-08-05T08:29:09.746Z,32.22
2022-08-05T08:31:47.150Z,32.38
2022-08-05T08:34:18.503Z,32.43
2022-08-05T08:36:54.025Z,32.74
2022-08-05T08:39:24.673Z,32.92
2022-08-05T08:41:59.754Z,32.97
2022-08-05T08:45:23.885Z,33.07
2022-08-05T08:48:06.745Z,33.07
2022-08-05T08:50:31.726Z,33.05
2022-08-05T08:53:07.865Z,33.10
2022-08-05T08:56:04.543Z,33.00
2022-08-05T08:58:43.981Z,33.03
2022-08-05T09:01:16.907Z,33.24
2022-08-05T09:03:52.859Z,33.20
2022-08-05T09:06:29.401Z,33.65
2022-08-05T09:09:02.124Z,33.63
2022-08-05T09:11:51.449Z,33.27
2022-08-05T09:14:59.128Z,32.90
2022-08-05T09:17:41.294Z,33.41
2022-08-05T09:20:02.318Z,33.54
2022-08-05T09:23:21.681Z,33.47
2022-08-05T09:26:01.958Z,33.50
2022-08-05T09:28:33.537Z,33.76
2022-08-05T09:32:38.742Z,33.70
2022-08-05T09:34:07.121Z,33.94
2022-08-05T09:36:55.630Z,33.41
2022-08-05T09:39:39.482Z,33.72
2022-08-05T09:42:23.695Z,33.91
2022-08-05T09:44:57.362Z,33.88
2022-08-05T09:47:46.595Z,33.73
2022-08-05T09:50:38.426Z,34.13
2022-08-05T09:53:08.866Z,34.35
2022-08-05T09:55:58.385Z,34.05
2022-08-05T09:58:29.166Z,34.04
2022-08-05T10:01:15.084Z,34.23
2022-08-05T10:03:58.683Z,34.07
2022-08-05T10:06:28.306Z,33.91
2022-08-05T10:09:09.746Z,34.08
2022-08-05T10:11:53.127Z,34.26
2022-08-05T10:14:33.235Z,34.49
2022-08-05T10:17:37.827Z,34.53
2022-08-05T10:20:10.872Z,34.94
2022-08-05T10:22:48.783Z,34.91
2022-08-05T10:25:19.704Z,34.50
2022-08-05T10:28:13.272Z,34.18
2022-08-05T10:31:20.921Z,34.64
2022-08-05T10:33:29.742Z,34.82
2022-08-05T10:36:06.719Z,34.88
2022-08-05T10:38:36.971Z,34.28
2022-08-05T10:41:14.059Z,34.57
2022-08-05T10:43:53.510Z,34.63
2022-08-05T10:46:23.872Z,34.95
2022-08-05T10:49:09.791Z,35.27
2022-08-05T10:52:00.687Z,35.63
2022-08-05T10:55:04.613Z,35.54
2022-08-05T10:57:34.267Z,36.39
2022-08-05T11:00:20.198Z,36.97
2022-08-05T11:03:24.478Z,36.58
2022-08-05T11:06:05.117Z,36.01
2022-08-05T11:08:38.179Z,35.72
2022-08-05T11:11:52.104Z,34.88
2022-08-05T11:15:01.250Z,35.07
2022-08-05T11:17:59.346Z,35.04
2022-08-05T11:20:52.703Z,35.51
2022-08-05T11:24:03.846Z,35.14
2022-08-05T11:26:28.610Z,34.90
2022-08-05T11:29:06.863Z,34.83
2022-08-05T11:31:58.660Z,35.08
2022-08-05T11:34:39.255Z,35.33
2022-08-05T11:38:30.407Z,35.77
2022-08-05T11:40:03.137Z,35.81
2022-08-05T11:42:38.067Z,35.71
2022-08-05T11:45:14.464Z,35.67
2022-08-05T11:47:57.924Z,35.65
2022-08-05T11:50:28.316Z,35.34
2022-08-05T11:52:58.159Z,35.44
2022-08-05T11:55:31.599Z,35.31
2022-08-05T11:58:09.357Z,35.46
2022-08-05T12:00:41.338Z,35.21
2022-08-05T12:03:31.671Z,35.16
2022-08-05T12:06:10.031Z,35.60
2022-08-05T12:08:50.042Z,35.72
2022-08-05T12:11:40.364Z,35.51
2022-08-05T12:14:10.236Z,35.50
2022-08-05T12:16:40.176Z,35.62
2022-08-05T12:20:27.121Z,35.62
2022-08-05T12:22:01.589Z,35.41
2022-08-05T12:24:30.135Z,35.45
2022-08-05T12:26:58.257Z,35.47
2022-08-05T12:29:29.067Z,35.55
2022-08-05T12:32:07.586Z,35.22
2022-08-05T12:34:38.357Z,35.57
2022-08-05T12:37:26.680Z,35.80
2022-08-05T12:40:03.029Z,36.12
2022-08-05T12:42:31.992Z,35.90
2022-08-05T12:45:08.877Z,36.01
2022-08-05T12:47:38.159Z,35.95
2022-08-05T12:50:16.551Z,36.02
2022-08-05T12:52:56.217Z,36.10
2022-08-05T12:55:32.925Z,36.12
2022-08-05T12:58:38.434Z,36.03
2022-08-05T13:02:02.755Z,36.22
2022-08-05T13:03:41.941Z,36.11
2022-08-05T13:06:16.634Z,36.10
2022-08-05T13:08:52.009Z,36.33
2022-08-05T13:12:01.232Z,36.27
2022-08-05T13:14:36.210Z,36.11
2022-08-05T13:17:15.986Z,36.03
2022-08-05T13:20:11.471Z,36.28
2022-08-05T13:22:41.072Z,36.22
2022-08-05T13:25:19.571Z,36.29
2022-08-05T13:27:52.274Z,36.37
2022-08-05T13:30:34.014Z,36.40
2022-08-05T13:33:04.734Z,36.41
2022-08-05T13:35:47.176Z,36.19
2022-08-05T13:38:30.386Z,36.26
2022-08-05T13:41:02.098Z,36.52
2022-08-05T13:43:45.618Z,35.80
2022-08-05T13:46:35.697Z,36.04
2022-08-05T13:49:10.103Z,36.43
2022-08-05T13:51:41.923Z,36.41
2022-08-05T13:54:16.310Z,36.53
2022-08-05T13:56:51.073Z,36.91
2022-08-05T13:59:24.235Z,36.88
2022-08-05T14:01:58.038Z,36.41
2022-08-05T14:04:51.840Z,36.63
2022-08-05T14:07:56.344Z,36.60
2022-08-05T14:10:18.697Z,36.43
2022-08-05T14:12:48.636Z,36.34
2022-08-05T14:16:05.386Z,36.51
2022-08-05T14:18:05.763Z,36.37
2022-08-05T14:20:42.128Z,36.24
2022-08-05T14:23:23.833Z,36.16
2022-08-05T14:25:58.109Z,36.55
2022-08-05T14:28:28.270Z,36.45
2022-08-05T14:30:57.178Z,36.04
2022-08-05T14:33:25.139Z,36.32
2022-08-05T14:35:54.283Z,36.49
2022-08-05T14:38:33.298Z,36.65
2022-08-05T14:41:06.149Z,36.44
2022-08-05T14:43:58.832Z,36.18
2022-08-05T14:46:28.366Z,36.37
2022-08-05T14:49:03.406Z,36.33
2022-08-05T14:51:42.773Z,36.34
2022-08-05T14:54:29.948Z,36.24
2022-08-05T14:56:58.469Z,36.04
2022-08-05T14:59:29.322Z,36.27
2022-08-05T15:02:03.942Z,36.48
2022-08-05T15:04:43.810Z,36.56
2022-08-05T15:08:06.095Z,36.76
2022-08-05T15:10:01.218Z,36.88
2022-08-05T15:12:36.849Z,36.87
2022-08-05T15:15:16.938Z,37.00
2022-08-05T15:18:05.834Z,36.94
2022-08-05T15:20:33.899Z,36.82
2022-08-05T15:23:09.760Z,36.58
2022-08-05T15:25:50.888Z,36.65
2022-08-05T15:28:27.381Z,36.51
2022-08-05T15:30:55.674Z,36.47
2022-08-05T15:34:05.014Z,36.37
2022-08-05T15:36:16.707Z,36.36
2022-08-05T15:38:46.397Z,36.32
2022-08-05T15:41:21.876Z,36.18
2022-08-05T15:43:54.377Z,35.78
2022-08-05T15:46:24.321Z,35.89
2022-08-05T15:49:00.795Z,35.88
2022-08-05T15:52:12.459Z,35.86
2022-08-05T15:54:34.912Z,36.01
2022-08-05T15:57:07.576Z,36.15
2022-08-05T15:59:36.178Z,36.11
2022-08-05T16:02:14.479Z,36.05
2022-08-05T16:04:47.262Z,36.04
2022-08-05T16:07:15.144Z,35.92
2022-08-05T16:09:43.487Z,36.00
2022-08-05T16:12:11.448Z,35.85
2022-08-05T16:14:39.556Z,35.83
2022-08-05T16:17:07.613Z,35.75
2022-08-05T16:20:05.630Z,35.79
2022-08-05T16:22:27.752Z,35.69
2022-08-05T16:25:08.016Z,35.75
2022-08-05T16:27:59.721Z,35.76
2022-08-05T16:30:28.782Z,35.77
2022-08-05T16:32:57.976Z,35.78
2022-08-05T16:35:28.686Z,35.62
2022-08-05T16:38:15.233Z,35.69
2022-08-05T16:40:55.019Z,35.80
2022-08-05T16:43:30.224Z,35.77
2022-08-05T16:46:07.623Z,35.55
2022-08-05T16:48:40.622Z,35.57
2022-08-05T16:51:09.984Z,35.55
2022-08-05T16:54:05.155Z,35.52
2022-08-05T16:56:33.541Z,35.47
2022-08-05T16:59:09.160Z,35.45
2022-08-05T17:01:53.996Z,35.26
2022-08-05T17:04:26.655Z,35.04
2022-08-05T17:07:00.225Z,34.92
2022-08-05T17:09:57.833Z,34.80
2022-08-05T17:12:50.260Z,35.01
2022-08-05T17:15:07.790Z,34.91
2022-08-05T17:17:42.271Z,34.89
2022-08-05T17:20:14.900Z,34.83
2022-08-05T17:22:44.833Z,34.99
2022-08-05T17:25:33.922Z,34.96
2022-08-05T17:27:59.866Z,34.91
2022-08-05T17:30:29.079Z,34.81
2022-08-05T17:32:56.661Z,34.72
2022-08-05T17:35:23.966Z,34.78
2022-08-05T17:37:52.153Z,34.81
2022-08-05T17:40:28.427Z,34.85
2022-08-05T17:42:59.005Z,34.76
2022-08-05T17:45:38.115Z,34.43
2022-08-05T17:48:07.893Z,34.40
2022-08-05T17:50:35.540Z,34.41
2022-08-05T17:53:04.684Z,34.17
2022-08-05T17:55:37.638Z,33.94
2022-08-05T17:58:09.595Z,33.74
2022-08-05T18:00:44.455Z,33.54
2022-08-05T18:03:48.365Z,33.47
2022-08-05T18:06:12.064Z,33.31
2022-08-05T18:08:52.108Z,33.36
2022-08-05T18:11:24.390Z,33.09
2022-08-05T18:14:06.788Z,32.92
2022-08-05T18:16:46.829Z,32.71
2022-08-05T18:19:22.931Z,32.44
2022-08-05T18:22:07.342Z,32.34
2022-08-05T18:24:40.160Z,32.18
2022-08-05T18:27:18.146Z,32.02
2022-08-05T18:29:54.090Z,32.07
2022-08-05T18:32:27.628Z,31.90
2022-08-05T18:34:58.701Z,31.83
2022-08-05T18:37:34.768Z,31.63
2022-08-05T18:40:34.045Z,31.53
2022-08-05T18:43:05.469Z,31.33
2022-08-05T18:45:41.311Z,31.29
2022-08-05T18:48:12.062Z,31.26
2022-08-05T18:52:03.069Z,31.15
2022-08-05T18:54:06.831Z,31.03
2022-08-05T18:56:36.623Z,30.93
2022-08-05T18:59:43.895Z,30.85
2022-08-05T19:01:56.950Z,30.81
2022-08-05T19:04:27.259Z,30.75
2022-08-05T19:06:55.206Z,30.66
2022-08-05T19:09:23.011Z,30.73
2022-08-05T19:12:00.000Z,30.69
2022-08-05T19:14:53.436Z,30.74
2022-08-05T19:17:18.490Z,30.67
2022-08-05T19:19:48.658Z,30.78
2022-08-05T19:22:17.232Z,30.75
2022-08-05T19:24:54.378Z,30.87
2022-08-05T19:27:27.970Z,30.73
2022-08-05T19:29:58.612Z,30.77
2022-08-05T19:32:27.787Z,30.73
2022-08-05T19:34:56.844Z,30.67
2022-08-05T19:37:29.918Z,30.51
2022-08-05T19:40:15.112Z,30.52
2022-08-05T19:42:43.015Z,30.34
2022-08-05T19:45:33.166Z,30.31
2022-08-05T19:48:06.027Z,30.16
2022-08-05T19:50:33.515Z,30.04
2022-08-05T19:53:09.372Z,29.98
2022-08-05T19:56:14.307Z,29.92
2022-08-05T19:58:29.280Z,29.91
2022-08-05T20:00:58.175Z,29.80
2022-08-05T20:03:27.432Z,29.76
2022-08-05T20:06:15.441Z,29.54
2022-08-05T20:08:47.377Z,29.45
2022-08-05T20:11:18.118Z,29.39
2022-08-05T20:13:58.525Z,29.42
2022-08-05T20:16:34.854Z,29.36
2022-08-05T20:19:03.487Z,29.31
2022-08-05T20:21:32.193Z,29.42
2022-08-05T20:24:00.956Z,29.28
2022-08-05T20:26:28.635Z,29.35
2022-08-05T20:29:00.814Z,29.23
2022-08-05T20:31:42.055Z,29.28
2022-08-05T20:34:17.535Z,29.18
2022-08-05T20:36:46.297Z,29.18
2022-08-05T20:39:17.002Z,29.02
2022-08-05T20:41:46.642Z,28.89
2022-08-05T20:44:30.354Z,28.91
2022-08-05T20:47:00.327Z,28.75
2022-08-05T20:49:28.041Z,28.71
2022-08-05T20:51:57.341Z,28.75
2022-08-05T20:54:43.201Z,28.92
2022-08-05T20:57:42.113Z,28.93
2022-08-05T21:00:20.368Z,28.88
2022-08-05T21:03:01.303Z,28.77
2022-08-05T21:05:47.601Z,28.86
2022-08-05T21:08:16.599Z,28.69
2022-08-05T21:10:48.612Z,28.63
2022-08-05T21:13:26.156Z,28.55
2022-08-05T21:16:05.683Z,28.37
2022-08-05T21:18:33.488Z,28.30
2022-08-05T21:21:01.124Z,28.16
2022-08-05T21:23:29.375Z,28.03
2022-08-05T21:26:08.129Z,28.12
2022-08-05T21:28:41.046Z,27.96
2022-08-05T21:31:16.637Z,27.92
2022-08-05T21:33:47.557Z,27.93
2022-08-05T21:36:27.744Z,27.89
2022-08-05T21:39:00.296Z,27.88
2022-08-05T21:41:33.870Z,27.81
2022-08-05T21:44:04.788Z,27.70
2022-08-05T21:46:34.448Z,27.58
2022-08-05T21:49:07.171Z,27.51
2022-08-05T21:52:22.372Z,27.45
2022-08-05T21:54:30.608Z,27.40
2022-08-05T22:00:03.336Z,27.54
2022-08-05T22:02:42.450Z,27.49
2022-08-05T22:05:12.500Z,27.35
2022-08-05T22:07:59.492Z,27.22
2022-08-05T22:10:31.051Z,27.15
2022-08-05T22:14:05.298Z,27.16
2022-08-05T22:16:01.136Z,27.23
2022-08-05T22:18:35.572Z,27.25
2022-08-05T22:21:04.773Z,27.26
2022-08-05T22:24:08.823Z,27.17
2022-08-05T22:27:00.123Z,27.07
2022-08-05T22:29:30.667Z,27.07
2022-08-05T22:32:03.313Z,27.09
2022-08-05T22:34:33.573Z,27.11
2022-08-05T22:37:03.852Z,27.01
2022-08-05T22:39:34.974Z,26.92
2022-08-05T22:42:10.077Z,26.98
2022-08-05T22:44:48.594Z,26.86
2022-08-05T22:47:30.005Z,26.77
2022-08-05T22:50:21.040Z,26.69
2022-08-05T22:52:53.094Z,26.78
2022-08-05T22:55:22.765Z,26.77
2022-08-05T22:57:53.319Z,26.65
2022-08-05T23:00:23.422Z,26.61
2022-08-05T23:02:54.870Z,26.60
2022-08-05T23:05:23.457Z,26.66
2022-08-05T23:07:52.305Z,26.69
2022-08-05T23:10:23.667Z,26.80
2022-08-05T23:12:55.705Z,26.72
2022-08-05T23:15:30.052Z,26.67
2022-08-05T23:18:06.165Z,26.56
2022-08-05T23:20:39.586Z,26.61
2022-08-05T23:23:08.943Z,26.56
2022-08-05T23:25:51.132Z,26.48
2022-08-05T23:28:29.138Z,26.57
2022-08-05T23:31:14.837Z,26.63
2022-08-05T23:34:05.218Z,26.67
2022-08-05T23:36:38.656Z,26.69
2022-08-05T23:39:17.233Z,26.56
2022-08-05T23:42:00.821Z,26.53
2022-08-05T23:44:31.698Z,26.55
2022-08-05T23:47:15.169Z,26.66
2022-08-05T23:49:47.655Z,26.65
2022-08-05T23:52:30.705Z,26.64
2022-08-05T23:55:05.505Z,26.73
2022-08-05T23:57:36.661Z,26.82
